Terminal Aerodrome Forecast
Issued by NWS

Home | Current Version | Previous Version | Graphics & Text | Print | Product List | Glossary On
Versions: 1 2 3 4 5 6 7 8 9 10 11 12 13 14 15 16 17 18 19 20 21 22 23
571
FTUS41 KCLE 282332
TAFFDY
TAF
KFDY 282332Z 2900/2924 24010KT 5SM -TSRA BKN050CB
      TEMPO 2900/2902 VRB20G35KT 1 1/2SM TSRA OVC015CB
     FM290300 26010KT 6SM -SHRA OVC035
     FM290600 26010KT P6SM SCT025 BKN040
     FM291200 24012KT P6SM SCT200=

USA.gov is the U.S. government's official web portal to all federal, state and local government web resources and services.